Pickwick Observed Data For Previous 48 Hours

Caption
Day and Hour Reservoir Elevation (behind dam)* Tailwater Elevation (below dam)* Average Hourly Discharge*
7/25/2017 1 AM CDT 413.81 359.38 11,302
7/25/2017 2 AM CDT 413.84 358.81 10,887
7/25/2017 3 AM CDT 413.79 358.41 10,806
7/25/2017 4 AM CDT 413.81 358.26 10,819
7/25/2017 5 AM CDT 413.91 358.02 10,760
7/25/2017 6 AM CDT 413.89 357.90 10,758
7/25/2017 7 AM CDT 413.91 357.80 10,805
7/25/2017 8 AM CDT 413.90 357.74 10,793
7/25/2017 9 AM CDT 413.91 357.71 10,807
7/25/2017 10 AM CDT 413.88 358.28 21,845
7/25/2017 11 AM CDT 413.89 358.88 30,142
7/25/2017 12 PM CDT 413.86 359.68 40,811
7/25/2017 1 PM CDT 413.91 360.26 40,541
7/25/2017 2 PM CDT 413.89 360.57 40,233
7/25/2017 3 PM CDT 413.86 360.69 39,934
7/25/2017 4 PM CDT 413.82 360.81 40,026
7/25/2017 5 PM CDT 413.87 360.90 39,989
7/25/2017 6 PM CDT 413.88 360.92 39,878
7/25/2017 7 PM CDT 413.90 360.95 39,900
7/25/2017 8 PM CDT 413.89 360.97 39,864
7/25/2017 9 PM CDT 413.87 360.99 39,814
7/25/2017 10 PM CDT 413.87 360.60 31,775
7/25/2017 11 PM CDT 413.95 360.04 21,838
7/26/2017 12 AM CDT 413.95 359.29 11,255
7/26/2017 1 AM CDT 413.96 358.77 10,835
7/26/2017 2 AM CDT 413.92 358.35 10,815
7/26/2017 3 AM CDT 413.97 358.24 10,792
7/26/2017 4 AM CDT 413.97 357.98 10,827
7/26/2017 5 AM CDT 414.02 357.83 10,718
7/26/2017 6 AM CDT 414.02 357.74 10,731
7/26/2017 7 AM CDT 414.07 357.80 10,746
7/26/2017 8 AM CDT 414.10 357.65 10,730
7/26/2017 9 AM CDT 414.03 357.61 10,822
7/26/2017 10 AM CDT 414.01 358.08 21,971
7/26/2017 11 AM CDT 414.04 358.77 30,194
7/26/2017 12 PM CDT 414.00 359.23 31,497
7/26/2017 1 PM CDT 413.91 360.20 50,804
7/26/2017 2 PM CDT 413.90 361.02 50,218
7/26/2017 3 PM CDT 413.95 361.57 49,430
7/26/2017 4 PM CDT 413.89 361.75 48,968
7/26/2017 5 PM CDT 413.91 361.97 49,334
7/26/2017 6 PM CDT 413.89 362.14 49,737
7/26/2017 7 PM CDT 413.76 362.25 49,837
7/26/2017 8 PM CDT 413.80 361.79 41,112
7/26/2017 9 PM CDT 413.93 361.15 30,913
7/26/2017 10 PM CDT 413.93 360.40 21,794
7/26/2017 11 PM CDT 413.93 359.58 11,280

Elevations are in feet above sea level. Discharges are in cubic feet per second and are reported at the end of the hour.